Time;durP1;ratioP1;P1;durP2;ratioP2;P2;SDS_P1;SDS_P2;PMS_P1;PMS_P2;Temp;Humidity;BMP_temperature;BMP_pressure;BME280_temperature;BME280_humidity;BME280_pressure;Samples;Min_cycle;Max_cycle;Signal;HPM_P1;HPM_P2
2022/03/01 00:02:06;;;;;;;15.80;10.18;;;0.90;99.90;;;;;;5094790;28;20032;-92
2022/03/01 00:04:32;;;;;;;15.20;9.38;;;0.90;99.90;;;;;;5094556;28;20042;-92
2022/03/01 00:06:58;;;;;;;14.55;9.30;;;0.90;99.90;;;;;;5094957;28;20038;-94
2022/03/01 00:09:23;;;;;;;17.23;9.68;;;0.90;99.90;;;;;;5094592;28;20120;-92
2022/03/01 00:11:49;;;;;;;17.17;9.80;;;0.90;99.90;;;;;;5094604;28;20028;-91
2022/03/01 00:14:15;;;;;;;17.52;9.00;;;0.90;99.90;;;;;;5094565;28;20028;-93
2022/03/01 00:16:40;;;;;;;18.45;9.77;;;0.80;99.90;;;;;;5093597;28;20105;-94
2022/03/01 00:19:06;;;;;;;14.85;9.15;;;0.80;99.90;;;;;;5094726;28;20020;-92
2022/03/01 00:21:33;;;;;;;15.88;8.90;;;0.80;99.90;;;;;;5094436;28;20359;-91
2022/03/01 00:24:00;;;;;;;14.32;9.23;;;0.90;99.90;;;;;;5094613;28;20016;-93
2022/03/01 00:26:26;;;;;;;20.30;10.63;;;0.90;99.90;;;;;;5094483;28;20161;-92
2022/03/01 00:28:52;;;;;;;14.88;9.48;;;0.90;99.90;;;;;;5094289;28;20088;-91
2022/03/01 00:31:17;;;;;;;15.77;9.18;;;0.90;99.90;;;;;;5094261;28;20024;-92
2022/03/01 00:33:43;;;;;;;19.13;10.13;;;0.80;99.90;;;;;;5094390;28;20024;-92
2022/03/01 00:36:10;;;;;;;16.60;9.65;;;0.80;99.90;;;;;;5094389;28;20081;-92
2022/03/01 00:38:35;;;;;;;17.33;10.15;;;0.80;99.90;;;;;;5094122;28;20016;-89
2022/03/01 00:41:01;;;;;;;16.98;10.10;;;0.80;99.90;;;;;;5094111;28;20027;-91
2022/03/01 00:43:27;;;;;;;21.35;10.27;;;0.80;99.90;;;;;;5093953;28;20398;-89
2022/03/01 00:45:53;;;;;;;18.55;10.07;;;0.90;99.90;;;;;;5093929;28;20020;-91
2022/03/01 00:48:20;;;;;;;20.05;10.82;;;0.90;99.90;;;;;;5094041;28;20023;-89
2022/03/01 00:50:46;;;;;;;19.40;10.95;;;0.90;99.90;;;;;;5093954;28;20127;-89
2022/03/01 00:53:12;;;;;;;21.55;10.15;;;0.90;99.90;;;;;;5093952;28;20493;-89
2022/03/01 00:55:38;;;;;;;19.95;10.77;;;0.90;99.90;;;;;;5094350;28;20028;-89
2022/03/01 00:58:04;;;;;;;20.02;10.77;;;0.90;99.90;;;;;;5094163;28;20051;-91
2022/03/01 01:00:31;;;;;;;20.55;11.07;;;0.90;99.90;;;;;;5093921;28;20024;-91
2022/03/01 01:02:57;;;;;;;17.38;10.40;;;0.80;99.90;;;;;;5093776;28;20016;-92
2022/03/01 01:05:22;;;;;;;17.88;10.90;;;0.90;99.90;;;;;;5093598;28;20093;-92
2022/03/01 01:07:49;;;;;;;19.75;11.10;;;0.90;99.90;;;;;;5093761;28;20478;-89
2022/03/01 01:10:15;;;;;;;19.80;10.95;;;0.90;99.90;;;;;;5093635;28;20024;-90
2022/03/01 01:12:41;;;;;;;19.35;10.77;;;0.90;99.90;;;;;;5093868;28;20028;-90
2022/03/01 01:15:09;;;;;;;20.52;11.07;;;0.90;99.90;;;;;;5093322;28;20140;-90
2022/03/01 01:17:35;;;;;;;16.23;10.02;;;0.90;99.90;;;;;;5093709;28;20036;-90
2022/03/01 01:20:01;;;;;;;20.77;11.57;;;0.90;99.90;;;;;;5093583;28;20069;-91
2022/03/01 01:22:41;;;;;;;18.08;10.90;;;0.90;99.90;;;;;;5093464;28;20027;-92
2022/03/01 01:25:09;;;;;;;;;;;0.80;99.90;;;;;;5094430;28;20462;-90
2022/03/01 01:27:36;;;;;;;18.50;10.25;;;0.80;99.90;;;;;;5093253;28;19908;-89
2022/03/01 01:30:03;;;;;;;18.73;10.48;;;0.80;99.90;;;;;;5093394;28;20028;-90
2022/03/01 01:32:29;;;;;;;23.63;11.95;;;0.90;99.90;;;;;;5093368;28;20024;-90
2022/03/01 01:34:55;;;;;;;22.10;11.88;;;0.90;99.90;;;;;;5094509;28;20031;-88
2022/03/01 01:37:20;;;;;;;21.08;11.90;;;0.80;99.90;;;;;;5093415;28;20077;-90
2022/03/01 01:39:47;;;;;;;24.60;13.00;;;0.70;99.90;;;;;;5093461;28;20475;-90
2022/03/01 01:42:13;;;;;;;20.35;12.43;;;0.80;99.90;;;;;;5093298;28;20016;-90
2022/03/01 01:44:39;;;;;;;20.73;11.95;;;0.80;99.90;;;;;;5094192;28;20035;-91
2022/03/01 01:47:07;;;;;;;20.45;11.48;;;0.80;99.90;;;;;;5093251;28;20024;-90
2022/03/01 01:49:33;;;;;;;21.10;12.70;;;0.70;99.90;;;;;;5093151;28;20028;-93
2022/03/01 01:51:59;;;;;;;23.00;12.10;;;0.70;99.90;;;;;;5093464;28;20021;-90
2022/03/01 01:54:25;;;;;;;23.73;13.20;;;0.70;99.90;;;;;;5094080;28;20469;-92
2022/03/01 01:56:51;;;;;;;22.75;13.45;;;0.60;99.90;;;;;;5093247;28;20032;-90
2022/03/01 01:59:16;;;;;;;25.15;13.82;;;0.50;99.90;;;;;;5093392;28;20089;-89
2022/03/01 02:01:42;;;;;;;27.77;14.05;;;0.50;99.90;;;;;;5093195;28;20367;-89
2022/03/01 02:04:08;;;;;;;26.70;14.82;;;0.50;99.90;;;;;;5093294;28;20020;-89
2022/03/01 02:06:48;;;;;;;23.38;13.55;;;0.40;99.90;;;;;;5093035;28;20036;-90
2022/03/01 02:09:14;;;;;;;30.42;16.30;;;0.30;99.90;;;;;;5093013;28;20494;-91
2022/03/01 02:11:39;;;;;;;28.23;14.38;;;0.30;99.90;;;;;;5092999;28;20036;-91
2022/03/01 02:14:05;;;;;;;28.08;14.32;;;0.30;99.90;;;;;;5093068;28;20054;-91
2022/03/01 02:16:31;;;;;;;29.30;14.55;;;0.30;99.90;;;;;;5092564;28;20171;-91
2022/03/01 02:18:57;;;;;;;25.45;14.35;;;0.30;99.90;;;;;;5093219;28;20025;-90
2022/03/01 02:21:23;;;;;;;29.05;14.90;;;0.20;99.90;;;;;;5092993;28;20027;-90
2022/03/01 02:23:49;;;;;;;30.17;14.88;;;0.20;99.90;;;;;;5093000;28;20390;-90
2022/03/01 02:26:14;;;;;;;28.77;15.68;;;0.20;99.90;;;;;;5092963;28;20024;-90
2022/03/01 02:28:40;;;;;;;28.67;15.20;;;0.20;99.90;;;;;;5092948;28;20029;-91
2022/03/01 02:31:06;;;;;;;36.80;17.27;;;0.20;99.90;;;;;;5092961;28;20021;-92
2022/03/01 02:33:31;;;;;;;31.45;16.17;;;0.20;99.90;;;;;;5092779;28;20535;-90
2022/03/01 02:35:57;;;;;;;29.98;15.43;;;0.20;99.90;;;;;;5092856;28;20028;-90
2022/03/01 02:38:23;;;;;;;35.15;16.60;;;0.20;99.90;;;;;;5094037;28;20016;-89
2022/03/01 02:40:48;;;;;;;29.05;15.82;;;0.20;99.90;;;;;;5095347;28;20047;-89
2022/03/01 02:43:16;;;;;;;35.63;17.80;;;0.20;99.90;;;;;;5097591;28;20086;-88
2022/03/01 02:45:41;;;;;;;35.70;16.83;;;0.20;99.90;;;;;;5096285;28;20099;-89
2022/03/01 02:48:07;;;;;;;33.13;15.65;;;0.10;99.90;;;;;;5096333;28;20530;-89
2022/03/01 02:50:33;;;;;;;30.25;15.68;;;0.10;99.90;;;;;;5096274;28;20024;-88
2022/03/01 02:52:58;;;;;;;32.83;16.50;;;0.10;99.90;;;;;;5097129;28;20024;-90
2022/03/01 02:55:24;;;;;;;31.30;15.63;;;0.20;99.90;;;;;;5097097;28;20039;-89
2022/03/01 02:57:50;;;;;;;32.05;16.45;;;0.10;99.90;;;;;;5095829;28;20020;-89
2022/03/01 03:00:16;;;;;;;32.97;16.75;;;0.10;99.90;;;;;;5096278;28;20016;-89
2022/03/01 03:02:43;;;;;;;29.52;14.40;;;0.10;99.90;;;;;;5095923;28;20417;-89
2022/03/01 03:05:09;;;;;;;32.75;16.38;;;0.10;99.90;;;;;;5095992;28;20174;-88
2022/03/01 03:07:35;;;;;;;33.35;16.67;;;0.10;99.90;;;;;;5095805;28;20382;-89
2022/03/01 03:10:01;;;;;;;31.27;15.98;;;0.10;99.90;;;;;;5095779;28;20035;-88
2022/03/01 03:12:27;;;;;;;29.60;15.20;;;0.10;99.90;;;;;;5095830;28;20101;-88
2022/03/01 03:14:53;;;;;;;35.00;15.90;;;0.10;99.90;;;;;;5095348;28;20044;-88
2022/03/01 03:17:19;;;;;;;30.73;15.70;;;0.10;99.90;;;;;;5095666;28;20036;-89
2022/03/01 03:19:44;;;;;;;31.85;15.93;;;0.10;99.90;;;;;;5095625;28;20063;-89
2022/03/01 03:22:10;;;;;;;29.15;15.75;;;0.10;99.90;;;;;;5095900;28;20024;-90
2022/03/01 03:24:36;;;;;;;33.72;16.33;;;0.10;99.90;;;;;;5095597;28;20024;-89
2022/03/01 03:27:02;;;;;;;30.05;15.18;;;0.10;99.90;;;;;;5095627;28;20028;-91
2022/03/01 03:29:28;;;;;;;32.60;15.85;;;0.10;99.90;;;;;;5095717;28;20408;-88
2022/03/01 03:31:57;;;;;;;38.30;17.65;;;0.10;99.90;;;;;;5096354;28;20035;-87
2022/03/01 03:34:24;;;;;;;34.20;16.20;;;0.00;99.90;;;;;;5095238;28;20428;-88
2022/03/01 03:36:49;;;;;;;34.60;15.93;;;0.00;99.90;;;;;;5095298;28;20020;-87
2022/03/01 03:39:15;;;;;;;37.40;16.25;;;0.00;99.90;;;;;;5095174;28;20023;-87
2022/03/01 03:41:41;;;;;;;31.23;15.85;;;0.10;99.90;;;;;;5096477;28;20027;-87
2022/03/01 03:44:07;;;;;;;34.03;16.30;;;0.10;99.90;;;;;;5094817;28;20039;-87
2022/03/01 03:46:32;;;;;;;30.60;15.50;;;0.10;99.90;;;;;;5095054;28;20031;-87
2022/03/01 03:48:58;;;;;;;31.77;15.93;;;0.10;99.90;;;;;;5096132;28;20081;-88
2022/03/01 03:51:25;;;;;;;33.30;15.10;;;0.10;99.90;;;;;;5096046;28;20028;-87
2022/03/01 03:53:51;;;;;;;33.88;16.15;;;0.10;99.90;;;;;;5095005;28;20111;-87
2022/03/01 03:56:18;;;;;;;31.98;15.20;;;0.10;99.90;;;;;;5094832;28;20020;-87
2022/03/01 03:58:44;;;;;;;33.20;16.95;;;0.00;99.90;;;;;;5094706;28;20489;-88
2022/03/01 04:01:10;;;;;;;35.75;16.70;;;0.00;99.90;;;;;;5095982;28;20030;-87
2022/03/01 04:03:36;;;;;;;36.97;16.05;;;0.00;99.90;;;;;;5094875;28;20381;-87
2022/03/01 04:06:03;;;;;;;33.45;16.13;;;0.00;99.90;;;;;;5094773;28;20504;-87
2022/03/01 04:08:28;;;;;;;30.08;14.38;;;0.00;99.90;;;;;;5094723;28;20036;-87
2022/03/01 04:10:57;;;;;;;30.63;14.70;;;0.10;99.90;;;;;;5094551;28;20031;-88
2022/03/01 04:13:24;;;;;;;36.92;15.40;;;0.10;99.90;;;;;;5094581;28;20025;-88
2022/03/01 04:15:50;;;;;;;27.73;14.02;;;0.00;99.90;;;;;;5094140;28;20052;-87
2022/03/01 04:18:15;;;;;;;32.63;15.40;;;0.10;99.90;;;;;;5094843;28;20470;-88
2022/03/01 04:20:41;;;;;;;33.75;15.27;;;0.00;99.90;;;;;;5094397;28;20039;-87
2022/03/01 04:23:07;;;;;;;31.75;15.57;;;0.00;99.90;;;;;;5095991;28;20024;-87
2022/03/01 04:25:33;;;;;;;26.42;14.15;;;0.00;99.90;;;;;;5095405;28;20493;-89
2022/03/01 04:27:59;;;;;;;29.98;15.05;;;0.00;99.90;;;;;;5094318;28;20052;-87
2022/03/01 04:30:26;;;;;;;30.20;14.10;;;0.00;99.90;;;;;;5095502;28;20051;-87
2022/03/01 04:32:51;;;;;;;32.95;15.98;;;-0.10;99.90;;;;;;5094271;28;20134;-88
2022/03/01 04:35:17;;;;;;;28.60;14.30;;;-0.10;99.90;;;;;;5093876;28;20052;-88
2022/03/01 04:37:43;;;;;;;31.75;15.70;;;0.00;99.90;;;;;;5094047;28;20054;-87
2022/03/01 04:40:11;;;;;;;29.05;14.32;;;0.10;99.90;;;;;;5094436;28;20107;-88
2022/03/01 04:42:37;;;;;;;28.85;14.88;;;0.10;99.90;;;;;;5094209;28;20078;-87
2022/03/01 04:45:05;;;;;;;31.27;15.82;;;0.00;99.90;;;;;;5094190;28;20024;-87
2022/03/01 04:47:31;;;;;;;32.78;14.85;;;0.10;99.90;;;;;;5094005;28;20408;-88
2022/03/01 04:49:58;;;;;;;31.13;15.85;;;0.00;99.90;;;;;;5094243;28;20024;-87
2022/03/01 04:52:24;;;;;;;28.77;14.43;;;0.10;99.90;;;;;;5093892;28;20035;-88
2022/03/01 04:54:50;;;;;;;29.77;14.77;;;0.10;99.90;;;;;;5093925;28;20020;-88
2022/03/01 04:57:16;;;;;;;30.45;14.43;;;0.10;99.90;;;;;;5093576;28;20032;-87
2022/03/01 04:59:41;;;;;;;36.67;16.98;;;0.00;99.90;;;;;;5093719;28;20054;-88
2022/03/01 05:02:07;;;;;;;32.10;14.93;;;0.00;99.90;;;;;;5093382;28;20028;-88
2022/03/01 05:04:33;;;;;;;33.85;16.65;;;0.00;99.90;;;;;;5093836;28;20020;-88
2022/03/01 05:06:58;;;;;;;34.50;16.20;;;0.00;99.90;;;;;;5093735;28;20035;-88
2022/03/01 05:09:24;;;;;;;34.42;16.63;;;0.10;99.90;;;;;;5093587;28;20142;-90
2022/03/01 05:11:51;;;;;;;31.95;16.10;;;0.10;99.90;;;;;;5093463;28;20035;-91
2022/03/01 05:14:17;;;;;;;32.55;15.93;;;0.10;99.90;;;;;;5093666;28;20097;-91
2022/03/01 05:16:43;;;;;;;31.02;15.20;;;0.10;99.90;;;;;;5093551;28;20052;-90
2022/03/01 05:19:10;;;;;;;30.40;14.32;;;0.10;99.90;;;;;;5093622;28;20108;-90
2022/03/01 05:21:36;;;;;;;29.05;14.70;;;0.10;99.90;;;;;;5093616;28;20020;-90
2022/03/01 05:24:03;;;;;;;28.27;15.50;;;0.20;99.90;;;;;;5093678;28;20115;-90
2022/03/01 05:26:29;;;;;;;30.10;15.13;;;0.20;99.90;;;;;;5093391;28;20081;-92
2022/03/01 05:28:55;;;;;;;33.63;16.05;;;0.20;99.90;;;;;;5093346;28;20359;-90
2022/03/01 05:31:21;;;;;;;32.20;15.55;;;0.20;99.90;;;;;;5093311;28;20020;-90
2022/03/01 05:33:47;;;;;;;34.22;17.25;;;0.30;99.90;;;;;;5093257;28;20031;-91
2022/03/01 05:36:15;;;;;;;30.80;15.90;;;0.30;99.90;;;;;;5093335;28;20028;-91
2022/03/01 05:38:41;;;;;;;32.85;16.80;;;0.30;99.90;;;;;;5093301;28;20436;-89
2022/03/01 05:41:08;;;;;;;33.58;16.73;;;0.20;99.90;;;;;;5093378;28;20049;-91
2022/03/01 05:43:34;;;;;;;45.80;20.27;;;0.30;99.90;;;;;;5093367;28;20016;-88
2022/03/01 05:46:00;;;;;;;34.97;16.67;;;0.30;99.90;;;;;;5093241;28;20035;-90
2022/03/01 05:48:26;;;;;;;30.83;15.20;;;0.30;99.90;;;;;;5094315;28;20020;-89
2022/03/01 05:50:52;;;;;;;32.38;17.13;;;0.30;99.90;;;;;;5093309;28;20031;-89
2022/03/01 05:53:18;;;;;;;34.25;17.15;;;0.30;99.90;;;;;;5093482;28;20104;-90
2022/03/01 05:55:44;;;;;;;34.72;16.45;;;0.40;99.90;;;;;;5096256;28;20051;-90
2022/03/01 05:58:10;;;;;;;35.55;16.52;;;0.40;99.90;;;;;;5094263;28;20385;-90
2022/03/01 06:00:36;;;;;;;37.00;17.38;;;0.40;99.90;;;;;;5094243;28;20020;-90
2022/03/01 06:03:02;;;;;;;40.50;18.70;;;0.40;99.90;;;;;;5093071;28;20097;-89
2022/03/01 06:05:29;;;;;;;40.88;18.90;;;0.50;99.90;;;;;;5093457;28;20024;-89
2022/03/01 06:07:58;;;;;;;32.92;16.67;;;0.50;99.90;;;;;;5093225;28;20024;-89
2022/03/01 06:10:25;;;;;;;33.35;17.27;;;0.50;99.90;;;;;;5093190;28;20024;-90
2022/03/01 06:12:50;;;;;;;30.17;16.40;;;0.40;99.90;;;;;;5093019;28;20042;-91
2022/03/01 06:15:16;;;;;;;33.70;17.02;;;0.40;99.90;;;;;;5094397;28;20052;-90
2022/03/01 06:17:42;;;;;;;33.78;17.40;;;0.40;99.90;;;;;;5096740;28;20055;-89
2022/03/01 06:20:10;;;;;;;31.88;16.23;;;0.40;99.90;;;;;;5098602;28;20075;-91
2022/03/01 06:22:36;;;;;;;36.25;17.58;;;0.40;99.90;;;;;;5096698;28;20016;-91
2022/03/01 06:25:03;;;;;;;44.15;22.05;;;0.50;99.90;;;;;;5096885;28;20019;-89
2022/03/01 06:27:28;;;;;;;30.10;16.42;;;0.50;99.90;;;;;;5096816;28;20028;-89
2022/03/01 06:29:54;;;;;;;33.28;17.92;;;0.50;99.90;;;;;;5096486;28;20091;-91
2022/03/01 06:32:20;;;;;;;38.38;20.38;;;0.60;99.90;;;;;;5096775;28;20066;-90
2022/03/01 06:34:46;;;;;;;39.20;19.27;;;0.60;99.90;;;;;;5096824;28;20020;-89
2022/03/01 06:37:13;;;;;;;35.20;17.55;;;0.60;99.90;;;;;;5096587;28;20023;-90
2022/03/01 06:39:43;;;;;;;35.95;18.40;;;0.60;99.90;;;;;;5096534;28;20054;-90
2022/03/01 06:42:10;;;;;;;33.38;17.73;;;0.70;99.90;;;;;;5096265;28;20024;-90
2022/03/01 06:44:36;;;;;;;36.95;17.80;;;0.70;99.90;;;;;;5096363;28;20478;-90
2022/03/01 06:47:03;;;;;;;32.78;17.50;;;0.70;99.90;;;;;;5097615;28;20466;-89
2022/03/01 06:49:29;;;;;;;36.55;17.38;;;0.70;99.90;;;;;;5097239;28;20118;-90
2022/03/01 06:51:55;;;;;;;33.08;17.23;;;0.70;99.90;;;;;;5096199;28;20052;-90
2022/03/01 06:54:20;;;;;;;35.90;17.48;;;0.70;99.90;;;;;;5096107;28;20024;-90
2022/03/01 06:56:47;;;;;;;34.50;16.65;;;0.60;99.90;;;;;;5096070;28;20039;-90
2022/03/01 06:59:13;;;;;;;34.85;17.00;;;0.60;99.90;;;;;;5096109;28;20020;-89
2022/03/01 07:01:39;;;;;;;32.70;17.23;;;0.70;99.90;;;;;;5096009;28;20020;-90
2022/03/01 07:04:05;;;;;;;31.73;16.35;;;0.60;99.90;;;;;;5097030;28;20070;-91
2022/03/01 07:06:30;;;;;;;31.48;16.38;;;0.70;99.90;;;;;;5096055;28;20059;-89
2022/03/01 07:08:56;;;;;;;33.15;16.38;;;0.70;99.90;;;;;;5097052;28;20024;-89
2022/03/01 07:11:22;;;;;;;35.28;17.38;;;0.70;99.90;;;;;;5095753;28;20077;-89
2022/03/01 07:13:48;;;;;;;38.83;18.42;;;0.70;99.90;;;;;;5095763;28;20028;-89
2022/03/01 07:16:14;;;;;;;39.80;18.65;;;0.80;99.90;;;;;;5095301;28;20048;-89
2022/03/01 07:18:41;;;;;;;36.28;17.33;;;0.80;99.90;;;;;;5095781;28;20028;-90
2022/03/01 07:21:07;;;;;;;37.45;18.98;;;0.80;99.90;;;;;;5095628;28;20023;-89
2022/03/01 07:23:33;;;;;;;35.63;16.85;;;0.80;99.90;;;;;;5095736;28;20107;-90
2022/03/01 07:25:59;;;;;;;39.00;16.70;;;0.80;99.90;;;;;;5094989;28;20035;-90
2022/03/01 07:28:24;;;;;;;31.95;16.38;;;0.90;99.90;;;;;;5097136;28;20047;-90
2022/03/01 07:30:50;;;;;;;41.10;19.48;;;0.90;99.90;;;;;;5095439;28;20122;-89
2022/03/01 07:33:16;;;;;;;37.45;19.13;;;0.80;99.90;;;;;;5096585;28;20378;-90
2022/03/01 07:35:41;;;;;;;35.33;18.13;;;0.90;99.90;;;;;;5095445;28;20073;-92
2022/03/01 07:38:07;;;;;;;56.92;27.98;;;0.90;99.90;;;;;;5096550;28;20173;-88
2022/03/01 07:40:33;;;;;;;94.55;42.47;;;0.90;99.90;;;;;;5096196;28;20024;-88
2022/03/01 07:42:58;;;;;;;61.85;28.02;;;0.80;99.90;;;;;;5096304;28;20020;-91
2022/03/01 07:45:24;;;;;;;40.55;18.48;;;0.90;99.90;;;;;;5095132;28;20020;-88
2022/03/01 07:47:52;;;;;;;79.78;35.78;;;0.80;99.90;;;;;;5095295;28;20020;-89
2022/03/01 07:50:17;;;;;;;125.90;50.67;;;0.90;99.90;;;;;;5094960;28;20024;-88
2022/03/01 07:52:43;;;;;;;80.30;29.40;;;0.90;99.90;;;;;;5094974;28;20030;-88
2022/03/01 07:55:09;;;;;;;40.85;18.75;;;0.90;99.90;;;;;;5094785;28;20032;-89
2022/03/01 07:57:35;;;;;;;36.13;17.20;;;0.90;99.90;;;;;;5095731;28;20020;-89
2022/03/01 08:00:01;;;;;;;56.70;22.23;;;0.90;99.90;;;;;;5094626;28;20381;-89
2022/03/01 08:02:27;;;;;;;70.70;29.00;;;1.00;99.90;;;;;;5094542;28;20020;-88
2022/03/01 08:04:52;;;;;;;57.22;22.42;;;1.10;99.90;;;;;;5094849;28;20039;-89
2022/03/01 08:07:18;;;;;;;54.38;21.15;;;1.10;99.90;;;;;;5094776;28;20119;-87
2022/03/01 08:09:44;;;;;;;58.67;23.88;;;1.10;99.90;;;;;;5094649;28;20524;-88
2022/03/01 08:12:10;;;;;;;65.07;22.65;;;1.10;99.90;;;;;;5094378;28;20024;-90
2022/03/01 08:14:36;;;;;;;68.05;23.75;;;1.10;99.90;;;;;;5094880;28;20074;-90
2022/03/01 08:17:03;;;;;;;65.93;23.00;;;1.10;99.90;;;;;;5095635;28;20487;-89
2022/03/01 08:19:29;;;;;;;52.97;21.83;;;1.20;99.90;;;;;;5094366;28;20024;-87
2022/03/01 08:21:54;;;;;;;42.90;18.98;;;1.20;99.90;;;;;;5095219;28;20424;-88
2022/03/01 08:24:20;;;;;;;45.90;19.63;;;1.20;99.90;;;;;;5095624;28;20020;-88
2022/03/01 08:26:46;;;;;;;51.60;19.55;;;1.20;99.90;;;;;;5094129;28;20039;-90
2022/03/01 08:29:12;;;;;;;54.45;21.80;;;1.30;99.90;;;;;;5094325;28;20062;-87
2022/03/01 08:31:41;;;;;;;37.40;18.05;;;1.30;99.90;;;;;;5094665;28;20055;-88
2022/03/01 08:34:07;;;;;;;49.85;19.65;;;1.30;99.90;;;;;;5094139;28;20115;-88
2022/03/01 08:36:33;;;;;;;40.50;19.02;;;1.30;99.90;;;;;;5093824;28;20114;-88
2022/03/01 08:38:59;;;;;;;38.35;17.35;;;1.40;99.90;;;;;;5094636;28;20090;-89
2022/03/01 08:41:25;;;;;;;38.65;18.05;;;1.40;99.90;;;;;;5093923;28;20355;-89
2022/03/01 08:43:50;;;;;;;48.92;20.30;;;1.40;99.90;;;;;;5093889;28;20032;-89
2022/03/01 08:46:17;;;;;;;41.53;19.95;;;1.40;99.90;;;;;;5093914;28;20071;-88
2022/03/01 08:48:44;;;;;;;45.55;19.48;;;1.40;99.90;;;;;;5093799;28;20028;-89
2022/03/01 08:51:11;;;;;;;38.83;17.20;;;1.30;99.90;;;;;;5094806;28;20024;-89
2022/03/01 08:53:37;;;;;;;49.13;20.60;;;1.30;99.90;;;;;;5093695;28;20020;-90
2022/03/01 08:56:04;;;;;;;46.95;19.38;;;1.30;99.90;;;;;;5093430;28;20127;-90
2022/03/01 08:58:29;;;;;;;34.03;16.75;;;1.30;99.90;;;;;;5093646;28;20027;-90
2022/03/01 09:00:55;;;;;;;43.50;18.98;;;1.30;99.90;;;;;;5093733;28;20024;-90
2022/03/01 09:03:23;;;;;;;40.15;17.42;;;1.40;99.90;;;;;;5093710;28;20034;-89
2022/03/01 09:05:48;;;;;;;38.60;17.98;;;1.40;99.90;;;;;;5093613;28;20024;-90
2022/03/01 09:08:15;;;;;;;33.97;16.42;;;1.40;99.90;;;;;;5093703;28;20031;-90
2022/03/01 09:10:41;;;;;;;37.17;17.58;;;1.40;99.90;;;;;;5093649;28;20112;-89
2022/03/01 09:13:07;;;;;;;33.42;17.02;;;1.40;99.90;;;;;;5093512;28;20115;-87
2022/03/01 09:15:33;;;;;;;37.38;18.55;;;1.40;99.90;;;;;;5093289;28;20040;-91
2022/03/01 09:18:01;;;;;;;36.17;18.55;;;1.40;99.90;;;;;;5093330;28;20039;-91
2022/03/01 09:20:27;;;;;;;37.38;18.00;;;1.50;99.90;;;;;;5093538;28;20043;-91
2022/03/01 09:22:54;;;;;;;32.70;17.10;;;1.50;99.90;;;;;;5093440;28;20475;-90
2022/03/01 09:25:20;;;;;;;29.20;15.45;;;1.50;99.90;;;;;;5093302;28;20059;-90
2022/03/01 09:27:45;;;;;;;35.03;17.13;;;1.50;99.90;;;;;;5093287;28;20028;-90
2022/03/01 09:30:12;;;;;;;32.95;16.88;;;1.50;99.90;;;;;;5093223;28;20025;-92
2022/03/01 09:32:37;;;;;;;36.95;17.17;;;1.60;99.90;;;;;;5093219;28;20027;-92
2022/03/01 09:35:03;;;;;;;35.70;17.95;;;1.60;99.90;;;;;;5093352;28;20028;-92
2022/03/01 09:37:31;;;;;;;31.80;16.33;;;1.60;99.90;;;;;;5093009;28;20049;-94
2022/03/01 09:39:59;;;;;;;35.78;18.20;;;1.60;99.90;;;;;;5093561;28;20031;-91
2022/03/01 09:42:25;;;;;;;36.50;16.67;;;1.60;99.90;;;;;;5093230;28;20020;-91
2022/03/01 09:44:52;;;;;;;36.75;16.58;;;1.70;99.90;;;;;;5093341;28;20173;-92
2022/03/01 09:47:18;;;;;;;34.97;16.73;;;1.70;99.90;;;;;;5093180;28;20071;-92
2022/03/01 09:49:44;;;;;;;32.58;16.25;;;1.70;99.90;;;;;;5095677;28;20031;-93
2022/03/01 09:52:10;;;;;;;34.08;16.08;;;1.80;99.90;;;;;;5097406;28;20024;-92
2022/03/01 09:54:35;;;;;;;31.50;15.55;;;1.90;99.90;;;;;;5097284;28;20030;-94
2022/03/01 09:57:01;;;;;;;33.47;17.02;;;1.80;99.90;;;;;;5097078;28;20030;-92
2022/03/01 09:59:27;;;;;;;36.13;16.85;;;1.80;99.90;;;;;;5096998;28;20051;-91
2022/03/01 10:01:53;;;;;;;32.47;16.73;;;1.90;99.90;;;;;;5097411;28;20107;-91
2022/03/01 10:04:20;;;;;;;35.42;17.80;;;1.90;99.90;;;;;;5096807;28;20026;-91
2022/03/01 10:06:48;;;;;;;34.60;17.00;;;1.90;99.90;;;;;;5097429;28;20021;-92
2022/03/01 10:09:19;;;;;;;33.42;16.48;;;1.90;99.90;;;;;;5096537;28;20419;-91
2022/03/01 10:11:46;;;;;;;40.15;18.00;;;2.00;99.90;;;;;;5096794;28;20028;-91
2022/03/01 10:14:12;;;;;;;40.63;18.45;;;2.00;99.90;;;;;;5096645;28;20028;-92
2022/03/01 10:16:41;;;;;;;38.67;17.33;;;2.00;99.90;;;;;;5096492;28;20063;-90
2022/03/01 10:19:19;;;;;;;34.65;16.92;;;2.00;99.90;;;;;;5096452;28;20056;-91
2022/03/01 10:22:05;;;;;;;35.88;17.67;;;2.00;99.90;;;;;;5096535;28;20031;-92
2022/03/01 10:24:31;;;;;;;57.35;28.00;;;2.00;99.90;;;;;;5095779;28;20028;-89
2022/03/01 10:27:01;;;;;;;47.70;21.17;;;2.00;99.90;;;;;;5096643;28;20055;-91
2022/03/01 10:29:29;;;;;;;47.90;20.85;;;2.00;99.90;;;;;;5096483;28;20107;-92
2022/03/01 10:31:59;;;;;;;62.80;27.00;;;2.00;99.90;;;;;;5096816;28;20112;-91
2022/03/01 10:34:27;;;;;;;41.38;19.35;;;2.00;99.90;;;;;;5096396;28;20386;-91
2022/03/01 10:36:53;;;;;;;45.60;20.70;;;2.00;99.90;;;;;;5096284;28;20028;-92
2022/03/01 10:39:27;;;;;;;58.53;23.42;;;2.10;99.90;;;;;;5096905;28;20085;-91
2022/03/01 10:41:53;;;;;;;47.03;21.60;;;2.20;99.90;;;;;;5096193;28;20024;-91
2022/03/01 10:44:25;;;;;;;56.88;24.35;;;2.10;99.90;;;;;;5094956;28;20028;-90
2022/03/01 10:46:53;;;;;;;50.28;22.10;;;2.10;99.90;;;;;;5095660;28;20028;-90
2022/03/01 10:49:24;;;;;;;39.67;18.10;;;2.10;99.90;;;;;;5095528;28;20035;-90
2022/03/01 10:51:51;;;;;;;44.83;21.05;;;2.20;99.90;;;;;;5095931;28;20115;-90
2022/03/01 10:54:27;;;;;;;55.50;24.05;;;2.10;99.90;;;;;;5095043;28;20050;-88
2022/03/01 10:56:57;;;;;;;44.55;20.65;;;2.20;99.90;;;;;;5095281;28;20466;-89
2022/03/01 10:59:28;;;;;;;49.78;22.80;;;2.20;99.90;;;;;;5095261;28;20516;-89
2022/03/01 11:01:56;;;;;;;49.42;21.92;;;2.20;99.90;;;;;;5094386;28;20489;-89
2022/03/01 11:04:22;;;;;;;52.25;22.75;;;2.10;99.90;;;;;;5094908;28;20057;-89
2022/03/01 11:06:49;;;;;;;79.75;30.50;;;2.10;99.90;;;;;;5094860;28;20028;-90
2022/03/01 11:09:16;;;;;;;81.90;30.23;;;2.10;99.90;;;;;;5094842;28;20027;-90
2022/03/01 11:11:42;;;;;;;86.07;32.65;;;2.10;99.90;;;;;;5095045;28;20063;-90
2022/03/01 11:14:15;;;;;;;104.28;38.78;;;2.10;99.90;;;;;;5094623;28;20082;-90
2022/03/01 11:17:00;;;;;;;203.95;69.88;;;2.20;99.90;;;;;;5094747;28;20551;-90
2022/03/01 11:19:44;;;;;;;127.65;45.08;;;2.20;99.90;;;;;;5094718;28;20489;-90
2022/03/01 11:22:28;;;;;;;48.75;21.73;;;2.20;99.90;;;;;;5095135;28;20036;-89
2022/03/01 11:24:54;;;;;;;70.88;27.75;;;2.20;99.90;;;;;;5094806;28;20108;-91
2022/03/01 11:27:23;;;;;;;75.18;29.42;;;2.30;99.90;;;;;;5094720;28;20110;-89
2022/03/01 11:29:50;;;;;;;72.53;29.83;;;2.30;99.90;;;;;;5094551;28;20088;-90
2022/03/01 11:32:25;;;;;;;107.53;39.33;;;2.20;99.90;;;;;;5094900;28;20119;-90
2022/03/01 11:35:02;;;;;;;75.35;27.92;;;2.10;99.90;;;;;;5095606;28;20085;-89
2022/03/01 11:37:27;;;;;;;161.15;54.47;;;2.10;99.90;;;;;;5094421;28;20545;-90
2022/03/01 11:39:56;;;;;;;137.00;48.60;;;2.10;99.90;;;;;;5094333;28;20062;-89
2022/03/01 11:42:22;;;;;;;67.70;29.13;;;2.20;99.90;;;;;;5094430;28;20024;-89
2022/03/01 11:44:53;;;;;;;74.45;29.38;;;2.20;99.90;;;;;;5094395;28;20467;-90
2022/03/01 11:47:23;;;;;;;;;;;2.20;99.90;;;;;;5094890;28;20474;-90
2022/03/01 11:49:49;;;;;;;94.07;37.50;;;2.10;99.90;;;;;;5094524;28;19916;-89
2022/03/01 11:52:23;;;;;;;70.50;29.27;;;2.20;99.90;;;;;;5094054;28;20065;-90
2022/03/01 11:54:51;;;;;;;65.25;26.08;;;2.20;99.90;;;;;;5094120;28;20430;-89
2022/03/01 11:57:25;;;;;;;87.70;34.80;;;2.20;99.90;;;;;;5093941;28;20024;-89
2022/03/01 11:59:54;;;;;;;93.53;37.90;;;2.10;99.90;;;;;;5094080;28;20125;-89
2022/03/01 12:02:23;;;;;;;111.13;43.13;;;2.10;99.90;;;;;;5093918;28;20020;-89
2022/03/01 12:04:51;;;;;;;104.55;44.65;;;2.10;99.90;;;;;;5093515;28;20034;-89
2022/03/01 12:07:23;;;;;;;88.75;42.50;;;2.20;99.90;;;;;;5093659;28;20024;-89
2022/03/01 12:10:05;;;;;;;54.88;25.13;;;2.20;99.90;;;;;;5093919;28;20051;-89
2022/03/01 12:12:36;;;;;;;69.38;29.83;;;2.20;99.90;;;;;;5093799;28;20023;-90
2022/03/01 12:15:07;;;;;;;60.88;30.88;;;2.20;99.90;;;;;;5093209;28;20051;-91
2022/03/01 12:17:41;;;;;;;;;;;2.20;99.90;;;;;;5095615;28;20024;-90
2022/03/01 12:20:10;;;;;;;54.08;25.45;;;2.20;99.90;;;;;;5095592;28;19904;-90
2022/03/01 12:22:36;;;;;;;48.67;21.42;;;2.20;99.90;;;;;;5094235;28;20496;-90
2022/03/01 12:25:02;;;;;;;50.33;21.15;;;2.10;99.90;;;;;;5093588;28;20044;-89
2022/03/01 12:27:30;;;;;;;49.15;21.02;;;2.20;99.90;;;;;;5094727;28;20093;-90
2022/03/01 12:30:03;;;;;;;51.78;19.17;;;2.20;99.90;;;;;;5093175;28;20055;-90
2022/03/01 12:32:29;;;;;;;44.47;18.02;;;2.30;99.90;;;;;;5093421;28;20364;-93
2022/03/01 12:35:00;;;;;;;47.72;19.48;;;2.20;99.90;;;;;;5093406;28;20027;-91
2022/03/01 12:37:28;;;;;;;46.47;19.48;;;2.10;99.90;;;;;;5093295;28;20024;-90